Fisher Golf — FUGD — position and weather

sailwx.info

Track history (hours):
 
Tides and Currents Weather Stations Pressure Air Temp Water Temp Dewpoint Dewpoint Depression Visibility Wind Speed Wind Dir Waves Ship Positions

Fisher Golf

Last reported at 2016-May-27 06:20 UTC. Time now 2016-May-31 10:06 UTC.
Position N 45°55' W 001°20'.

Length 20 m.

Type: Fishing. MMSI: 228239000.

Date/timePositionNaut miles runAvg speedWind from/ knotsBaromVisibWave heightAir tempDewpointWater temp
2016-May-27 06:20N 45°55' W 001°20'0 0.0
2016-May-26 08:33N 45°55' W 001°20'  
2016-May-24 03:03N 46°11' W 001°41'610.3
2016-May-24 02:31N 46°15' W 001°45'1010.3
2016-May-24 01:34N 46°23' W 001°54'1010.2
2016-May-24 00:34N 46°31' W 002°03'4210.2
2016-May-23 20:30N 47°04' W 002°41'9 9.6
2016-May-23 19:33N 47°11' W 002°49'1010.5
2016-May-23 18:33N 47°19' W 002°58'1111.0
2016-May-23 17:34N 47°27' W 003°09'1110.7
2016-May-23 16:34N 47°36' W 003°18'8 7.9
2016-May-23 15:34N 47°44' W 003°22'0 0.0
2016-May-23 14:34N 47°44' W 003°22'  
2016-May-20 10:07N 47°44' W 003°22'0 0.0
2016-May-20 09:33N 47°44' W 003°22'0 0.0
2016-May-18 14:33N 47°44' W 003°22'  
Track history (hours):
 
Tides and Currents Weather Stations Pressure Air Temp Water Temp Dewpoint Dewpoint Depression Visibility Wind Speed Wind Dir Waves Ship Positions

Fisher Golf

Last reported at 2016-May-27 06:20 UTC. Time now 2016-May-31 10:06 UTC.
Position N 45°55' W 001°20'.

Length 20 m.

Type: Fishing. MMSI: 228239000.

Date/timePositionNaut miles runAvg speedWind from/ knotsBaromVisibWave heightAir tempDewpointWater temp
2016-May-27 06:20N 45°55' W 001°20'0 0.0
2016-May-26 08:33N 45°55' W 001°20'  
2016-May-24 03:03N 46°11' W 001°41'610.3
2016-May-24 02:31N 46°15' W 001°45'1010.3
2016-May-24 01:34N 46°23' W 001°54'1010.2
2016-May-24 00:34N 46°31' W 002°03'4210.2
2016-May-23 20:30N 47°04' W 002°41'9 9.6
2016-May-23 19:33N 47°11' W 002°49'1010.5
2016-May-23 18:33N 47°19' W 002°58'1111.0
2016-May-23 17:34N 47°27' W 003°09'1110.7
2016-May-23 16:34N 47°36' W 003°18'8 7.9
2016-May-23 15:34N 47°44' W 003°22'0 0.0
2016-May-23 14:34N 47°44' W 003°22'  
2016-May-20 10:07N 47°44' W 003°22'0 0.0
2016-May-20 09:33N 47°44' W 003°22'0 0.0
2016-May-18 14:33N 47°44' W 003°22'  

Dump ship's entire track history